sensor_id;sensor_type;location;lat;lon;timestamp;P1;durP1;ratioP1;P2;durP2;ratioP2
9597;SDS011;4837;50.890;4.724;2023-12-04T00:01:31;9.47;;;5.80;;
9597;SDS011;4837;50.890;4.724;2023-12-04T00:03:57;8.80;;;5.77;;
9597;SDS011;4837;50.890;4.724;2023-12-04T00:06:23;8.50;;;5.40;;
9597;SDS011;4837;50.890;4.724;2023-12-04T00:08:49;8.00;;;5.63;;
9597;SDS011;4837;50.890;4.724;2023-12-04T00:11:16;9.93;;;5.73;;
9597;SDS011;4837;50.890;4.724;2023-12-04T00:13:42;9.17;;;5.37;;
9597;SDS011;4837;50.890;4.724;2023-12-04T00:16:08;8.20;;;5.50;;
9597;SDS011;4837;50.890;4.724;2023-12-04T00:18:34;8.40;;;5.27;;
9597;SDS011;4837;50.890;4.724;2023-12-04T00:21:00;8.23;;;5.60;;
9597;SDS011;4837;50.890;4.724;2023-12-04T00:23:26;8.57;;;5.50;;
9597;SDS011;4837;50.890;4.724;2023-12-04T00:25:53;7.03;;;4.77;;
9597;SDS011;4837;50.890;4.724;2023-12-04T00:28:21;8.53;;;5.10;;
9597;SDS011;4837;50.890;4.724;2023-12-04T00:30:47;9.03;;;5.53;;
9597;SDS011;4837;50.890;4.724;2023-12-04T00:33:13;9.07;;;5.50;;
9597;SDS011;4837;50.890;4.724;2023-12-04T00:35:39;8.30;;;5.43;;
9597;SDS011;4837;50.890;4.724;2023-12-04T00:38:05;8.87;;;5.43;;
9597;SDS011;4837;50.890;4.724;2023-12-04T00:40:31;9.10;;;5.70;;
9597;SDS011;4837;50.890;4.724;2023-12-04T00:42:58;7.97;;;5.03;;
9597;SDS011;4837;50.890;4.724;2023-12-04T00:45:24;8.33;;;5.13;;
9597;SDS011;4837;50.890;4.724;2023-12-04T00:47:50;8.33;;;5.27;;
9597;SDS011;4837;50.890;4.724;2023-12-04T00:50:16;8.47;;;5.73;;
9597;SDS011;4837;50.890;4.724;2023-12-04T00:52:42;10.37;;;5.90;;
9597;SDS011;4837;50.890;4.724;2023-12-04T00:55:08;8.90;;;5.47;;
9597;SDS011;4837;50.890;4.724;2023-12-04T00:57:34;8.40;;;5.43;;
9597;SDS011;4837;50.890;4.724;2023-12-04T01:00:01;9.50;;;5.60;;
9597;SDS011;4837;50.890;4.724;2023-12-04T01:02:27;8.83;;;5.20;;
9597;SDS011;4837;50.890;4.724;2023-12-04T01:04:53;9.97;;;6.00;;
9597;SDS011;4837;50.890;4.724;2023-12-04T01:07:19;8.50;;;5.70;;
9597;SDS011;4837;50.890;4.724;2023-12-04T01:09:45;8.37;;;5.30;;
9597;SDS011;4837;50.890;4.724;2023-12-04T01:12:11;9.37;;;6.07;;
9597;SDS011;4837;50.890;4.724;2023-12-04T01:14:37;11.17;;;5.77;;
9597;SDS011;4837;50.890;4.724;2023-12-04T01:17:04;8.07;;;5.50;;
9597;SDS011;4837;50.890;4.724;2023-12-04T01:19:31;8.70;;;5.67;;
9597;SDS011;4837;50.890;4.724;2023-12-04T01:21:57;9.30;;;5.57;;
9597;SDS011;4837;50.890;4.724;2023-12-04T01:24:23;7.97;;;5.40;;
9597;SDS011;4837;50.890;4.724;2023-12-04T01:26:49;9.40;;;5.67;;
9597;SDS011;4837;50.890;4.724;2023-12-04T01:29:15;8.47;;;5.47;;
9597;SDS011;4837;50.890;4.724;2023-12-04T01:31:41;8.80;;;5.60;;
9597;SDS011;4837;50.890;4.724;2023-12-04T01:34:08;7.80;;;5.30;;
9597;SDS011;4837;50.890;4.724;2023-12-04T01:36:34;9.10;;;5.87;;
9597;SDS011;4837;50.890;4.724;2023-12-04T01:39:00;8.80;;;5.17;;
9597;SDS011;4837;50.890;4.724;2023-12-04T01:41:26;9.43;;;5.53;;
9597;SDS011;4837;50.890;4.724;2023-12-04T01:43:52;8.13;;;5.43;;
9597;SDS011;4837;50.890;4.724;2023-12-04T01:46:19;8.33;;;5.43;;
9597;SDS011;4837;50.890;4.724;2023-12-04T01:48:45;9.30;;;5.20;;
9597;SDS011;4837;50.890;4.724;2023-12-04T01:51:14;8.73;;;5.57;;
9597;SDS011;4837;50.890;4.724;2023-12-04T01:53:41;9.20;;;5.40;;
9597;SDS011;4837;50.890;4.724;2023-12-04T01:56:08;8.40;;;5.27;;
9597;SDS011;4837;50.890;4.724;2023-12-04T01:58:34;7.70;;;4.73;;
9597;SDS011;4837;50.890;4.724;2023-12-04T02:01:00;8.90;;;5.60;;
9597;SDS011;4837;50.890;4.724;2023-12-04T02:03:27;7.53;;;4.73;;
9597;SDS011;4837;50.890;4.724;2023-12-04T02:05:54;8.63;;;5.43;;
9597;SDS011;4837;50.890;4.724;2023-12-04T02:08:20;9.50;;;5.63;;
9597;SDS011;4837;50.890;4.724;2023-12-04T02:10:46;9.57;;;5.47;;
9597;SDS011;4837;50.890;4.724;2023-12-04T02:13:12;8.43;;;5.27;;
9597;SDS011;4837;50.890;4.724;2023-12-04T02:15:38;8.20;;;5.33;;
9597;SDS011;4837;50.890;4.724;2023-12-04T02:18:05;10.30;;;5.93;;
9597;SDS011;4837;50.890;4.724;2023-12-04T02:20:31;8.90;;;5.43;;
9597;SDS011;4837;50.890;4.724;2023-12-04T02:23:01;8.60;;;5.63;;
9597;SDS011;4837;50.890;4.724;2023-12-04T02:25:28;9.40;;;6.40;;
9597;SDS011;4837;50.890;4.724;2023-12-04T02:27:55;10.57;;;6.30;;
9597;SDS011;4837;50.890;4.724;2023-12-04T02:30:22;10.37;;;5.70;;
9597;SDS011;4837;50.890;4.724;2023-12-04T02:32:50;9.93;;;5.70;;
9597;SDS011;4837;50.890;4.724;2023-12-04T02:35:21;8.73;;;5.33;;
9597;SDS011;4837;50.890;4.724;2023-12-04T02:37:48;8.87;;;5.77;;
9597;SDS011;4837;50.890;4.724;2023-12-04T02:40:15;9.17;;;5.57;;
9597;SDS011;4837;50.890;4.724;2023-12-04T02:42:41;9.50;;;5.63;;
9597;SDS011;4837;50.890;4.724;2023-12-04T02:45:07;9.33;;;5.80;;
9597;SDS011;4837;50.890;4.724;2023-12-04T02:47:34;8.33;;;5.70;;
9597;SDS011;4837;50.890;4.724;2023-12-04T02:50:00;8.67;;;5.87;;
9597;SDS011;4837;50.890;4.724;2023-12-04T02:52:26;7.77;;;5.53;;
9597;SDS011;4837;50.890;4.724;2023-12-04T02:54:52;8.43;;;5.67;;
9597;SDS011;4837;50.890;4.724;2023-12-04T02:57:18;10.30;;;5.80;;
9597;SDS011;4837;50.890;4.724;2023-12-04T02:59:45;8.57;;;5.80;;
9597;SDS011;4837;50.890;4.724;2023-12-04T03:02:11;8.20;;;5.20;;
9597;SDS011;4837;50.890;4.724;2023-12-04T03:04:37;9.83;;;5.50;;
9597;SDS011;4837;50.890;4.724;2023-12-04T03:07:03;9.13;;;5.30;;
9597;SDS011;4837;50.890;4.724;2023-12-04T03:09:29;8.23;;;4.80;;
9597;SDS011;4837;50.890;4.724;2023-12-04T03:11:55;8.07;;;5.33;;
9597;SDS011;4837;50.890;4.724;2023-12-04T03:14:21;7.83;;;5.10;;
9597;SDS011;4837;50.890;4.724;2023-12-04T03:16:48;10.43;;;5.67;;
9597;SDS011;4837;50.890;4.724;2023-12-04T03:19:14;8.93;;;5.10;;
9597;SDS011;4837;50.890;4.724;2023-12-04T03:21:40;7.67;;;5.13;;
9597;SDS011;4837;50.890;4.724;2023-12-04T03:24:06;8.23;;;5.27;;
9597;SDS011;4837;50.890;4.724;2023-12-04T03:26:32;8.40;;;5.23;;
9597;SDS011;4837;50.890;4.724;2023-12-04T03:28:58;6.90;;;5.00;;
9597;SDS011;4837;50.890;4.724;2023-12-04T03:31:24;8.23;;;5.40;;
9597;SDS011;4837;50.890;4.724;2023-12-04T03:33:51;7.50;;;4.70;;
9597;SDS011;4837;50.890;4.724;2023-12-04T03:36:17;7.03;;;5.13;;
9597;SDS011;4837;50.890;4.724;2023-12-04T03:38:43;7.73;;;5.47;;
9597;SDS011;4837;50.890;4.724;2023-12-04T03:41:15;7.20;;;5.00;;
9597;SDS011;4837;50.890;4.724;2023-12-04T03:43:42;8.10;;;4.77;;
9597;SDS011;4837;50.890;4.724;2023-12-04T03:46:08;7.70;;;5.03;;
9597;SDS011;4837;50.890;4.724;2023-12-04T03:48:34;6.50;;;4.73;;
9597;SDS011;4837;50.890;4.724;2023-12-04T03:51:00;7.43;;;4.73;;
9597;SDS011;4837;50.890;4.724;2023-12-04T03:53:27;8.07;;;5.67;;
9597;SDS011;4837;50.890;4.724;2023-12-04T03:55:54;8.27;;;4.90;;
9597;SDS011;4837;50.890;4.724;2023-12-04T03:58:20;8.60;;;5.40;;
9597;SDS011;4837;50.890;4.724;2023-12-04T04:00:46;9.27;;;5.13;;
9597;SDS011;4837;50.890;4.724;2023-12-04T04:03:12;6.80;;;5.00;;
9597;SDS011;4837;50.890;4.724;2023-12-04T04:05:38;7.77;;;4.40;;
9597;SDS011;4837;50.890;4.724;2023-12-04T04:08:04;8.07;;;4.60;;
9597;SDS011;4837;50.890;4.724;2023-12-04T04:10:32;8.00;;;5.07;;
9597;SDS011;4837;50.890;4.724;2023-12-04T04:12:58;7.17;;;4.63;;
9597;SDS011;4837;50.890;4.724;2023-12-04T04:15:25;7.73;;;4.93;;
9597;SDS011;4837;50.890;4.724;2023-12-04T04:17:51;8.80;;;4.67;;
9597;SDS011;4837;50.890;4.724;2023-12-04T04:20:17;7.93;;;4.60;;
9597;SDS011;4837;50.890;4.724;2023-12-04T04:22:43;7.03;;;4.30;;
9597;SDS011;4837;50.890;4.724;2023-12-04T04:25:11;7.50;;;4.87;;
9597;SDS011;4837;50.890;4.724;2023-12-04T04:27:37;8.10;;;4.87;;
9597;SDS011;4837;50.890;4.724;2023-12-04T04:30:04;8.17;;;4.77;;
9597;SDS011;4837;50.890;4.724;2023-12-04T04:32:30;6.53;;;4.50;;
9597;SDS011;4837;50.890;4.724;2023-12-04T04:34:56;6.33;;;4.37;;
9597;SDS011;4837;50.890;4.724;2023-12-04T04:37:23;6.23;;;4.30;;
9597;SDS011;4837;50.890;4.724;2023-12-04T04:39:49;6.80;;;4.67;;
9597;SDS011;4837;50.890;4.724;2023-12-04T04:42:15;6.50;;;4.40;;
9597;SDS011;4837;50.890;4.724;2023-12-04T04:44:41;6.30;;;4.37;;
9597;SDS011;4837;50.890;4.724;2023-12-04T04:47:07;6.20;;;4.10;;
9597;SDS011;4837;50.890;4.724;2023-12-04T04:49:33;5.20;;;3.90;;
9597;SDS011;4837;50.890;4.724;2023-12-04T04:51:59;6.80;;;4.10;;
9597;SDS011;4837;50.890;4.724;2023-12-04T04:54:25;5.03;;;3.70;;
9597;SDS011;4837;50.890;4.724;2023-12-04T04:56:51;6.27;;;4.10;;
9597;SDS011;4837;50.890;4.724;2023-12-04T04:59:17;6.57;;;4.40;;
9597;SDS011;4837;50.890;4.724;2023-12-04T05:01:43;6.00;;;4.30;;
9597;SDS011;4837;50.890;4.724;2023-12-04T05:04:09;6.67;;;4.37;;
9597;SDS011;4837;50.890;4.724;2023-12-04T05:06:35;5.77;;;3.93;;
9597;SDS011;4837;50.890;4.724;2023-12-04T05:09:02;6.17;;;4.10;;
9597;SDS011;4837;50.890;4.724;2023-12-04T05:11:28;6.57;;;4.20;;
9597;SDS011;4837;50.890;4.724;2023-12-04T05:13:55;5.60;;;3.67;;
9597;SDS011;4837;50.890;4.724;2023-12-04T05:16:21;5.70;;;3.87;;
9597;SDS011;4837;50.890;4.724;2023-12-04T05:18:47;5.60;;;3.57;;
9597;SDS011;4837;50.890;4.724;2023-12-04T05:21:13;6.23;;;4.27;;
9597;SDS011;4837;50.890;4.724;2023-12-04T05:23:39;6.00;;;3.83;;
9597;SDS011;4837;50.890;4.724;2023-12-04T05:26:06;5.23;;;3.73;;
9597;SDS011;4837;50.890;4.724;2023-12-04T05:28:32;5.80;;;3.97;;
9597;SDS011;4837;50.890;4.724;2023-12-04T05:30:59;5.27;;;3.50;;
9597;SDS011;4837;50.890;4.724;2023-12-04T05:33:25;6.37;;;4.03;;
9597;SDS011;4837;50.890;4.724;2023-12-04T05:35:52;6.23;;;3.60;;
9597;SDS011;4837;50.890;4.724;2023-12-04T05:38:18;5.57;;;3.50;;
9597;SDS011;4837;50.890;4.724;2023-12-04T05:40:45;4.87;;;3.80;;
9597;SDS011;4837;50.890;4.724;2023-12-04T05:43:11;6.07;;;4.07;;
9597;SDS011;4837;50.890;4.724;2023-12-04T05:45:38;7.27;;;4.23;;
9597;SDS011;4837;50.890;4.724;2023-12-04T05:48:05;5.50;;;3.77;;
9597;SDS011;4837;50.890;4.724;2023-12-04T05:50:31;5.67;;;3.90;;
9597;SDS011;4837;50.890;4.724;2023-12-04T05:52:57;6.30;;;4.00;;
9597;SDS011;4837;50.890;4.724;2023-12-04T05:55:24;5.50;;;3.60;;
9597;SDS011;4837;50.890;4.724;2023-12-04T05:57:50;4.60;;;3.83;;
9597;SDS011;4837;50.890;4.724;2023-12-04T06:00:17;4.17;;;3.20;;
9597;SDS011;4837;50.890;4.724;2023-12-04T06:02:43;4.67;;;3.30;;
9597;SDS011;4837;50.890;4.724;2023-12-04T06:05:10;4.93;;;3.70;;
9597;SDS011;4837;50.890;4.724;2023-12-04T06:07:36;6.83;;;4.90;;
9597;SDS011;4837;50.890;4.724;2023-12-04T06:10:03;7.93;;;4.70;;
9597;SDS011;4837;50.890;4.724;2023-12-04T06:12:33;6.23;;;4.33;;
9597;SDS011;4837;50.890;4.724;2023-12-04T06:14:59;6.40;;;3.93;;
9597;SDS011;4837;50.890;4.724;2023-12-04T06:17:26;5.70;;;4.20;;
9597;SDS011;4837;50.890;4.724;2023-12-04T06:19:52;4.07;;;3.40;;
9597;SDS011;4837;50.890;4.724;2023-12-04T06:22:19;6.00;;;4.00;;
9597;SDS011;4837;50.890;4.724;2023-12-04T06:24:47;6.47;;;3.80;;
9597;SDS011;4837;50.890;4.724;2023-12-04T06:27:14;5.13;;;3.60;;
9597;SDS011;4837;50.890;4.724;2023-12-04T06:29:41;5.17;;;3.90;;
9597;SDS011;4837;50.890;4.724;2023-12-04T06:32:07;5.27;;;3.70;;
9597;SDS011;4837;50.890;4.724;2023-12-04T06:34:34;5.57;;;4.03;;
9597;SDS011;4837;50.890;4.724;2023-12-04T06:37:01;6.23;;;4.20;;
9597;SDS011;4837;50.890;4.724;2023-12-04T06:39:29;6.07;;;4.20;;
9597;SDS011;4837;50.890;4.724;2023-12-04T06:41:58;6.90;;;4.23;;
9597;SDS011;4837;50.890;4.724;2023-12-04T06:44:24;6.53;;;4.50;;
9597;SDS011;4837;50.890;4.724;2023-12-04T06:46:50;5.43;;;4.20;;
9597;SDS011;4837;50.890;4.724;2023-12-04T06:49:17;7.23;;;4.30;;
9597;SDS011;4837;50.890;4.724;2023-12-04T06:51:44;6.37;;;4.37;;
9597;SDS011;4837;50.890;4.724;2023-12-04T06:54:10;5.40;;;3.97;;
9597;SDS011;4837;50.890;4.724;2023-12-04T06:56:38;6.43;;;4.53;;
9597;SDS011;4837;50.890;4.724;2023-12-04T06:59:04;6.20;;;4.30;;
9597;SDS011;4837;50.890;4.724;2023-12-04T07:01:30;7.37;;;4.97;;
9597;SDS011;4837;50.890;4.724;2023-12-04T07:03:57;6.00;;;4.37;;
9597;SDS011;4837;50.890;4.724;2023-12-04T07:06:23;6.73;;;4.03;;
9597;SDS011;4837;50.890;4.724;2023-12-04T07:08:49;7.03;;;4.53;;
9597;SDS011;4837;50.890;4.724;2023-12-04T07:11:15;6.17;;;4.10;;
9597;SDS011;4837;50.890;4.724;2023-12-04T07:13:41;5.67;;;4.47;;
9597;SDS011;4837;50.890;4.724;2023-12-04T07:16:08;6.10;;;4.50;;
9597;SDS011;4837;50.890;4.724;2023-12-04T07:18:34;7.07;;;4.43;;
9597;SDS011;4837;50.890;4.724;2023-12-04T07:21:00;6.10;;;4.17;;
9597;SDS011;4837;50.890;4.724;2023-12-04T07:23:26;7.33;;;4.90;;
9597;SDS011;4837;50.890;4.724;2023-12-04T07:25:52;6.50;;;4.53;;
9597;SDS011;4837;50.890;4.724;2023-12-04T07:28:18;6.03;;;4.43;;
9597;SDS011;4837;50.890;4.724;2023-12-04T07:30:45;6.93;;;4.70;;
9597;SDS011;4837;50.890;4.724;2023-12-04T07:33:11;6.73;;;5.10;;
9597;SDS011;4837;50.890;4.724;2023-12-04T07:35:37;7.27;;;5.03;;
9597;SDS011;4837;50.890;4.724;2023-12-04T07:38:04;6.03;;;4.20;;
9597;SDS011;4837;50.890;4.724;2023-12-04T07:40:30;7.20;;;5.10;;
9597;SDS011;4837;50.890;4.724;2023-12-04T07:42:57;7.07;;;4.37;;
9597;SDS011;4837;50.890;4.724;2023-12-04T07:45:23;5.53;;;4.20;;
9597;SDS011;4837;50.890;4.724;2023-12-04T07:47:49;7.73;;;4.70;;
9597;SDS011;4837;50.890;4.724;2023-12-04T07:50:16;5.90;;;4.27;;
9597;SDS011;4837;50.890;4.724;2023-12-04T07:52:42;6.30;;;4.70;;
9597;SDS011;4837;50.890;4.724;2023-12-04T07:55:08;7.43;;;5.90;;
9597;SDS011;4837;50.890;4.724;2023-12-04T07:57:34;6.07;;;4.40;;
9597;SDS011;4837;50.890;4.724;2023-12-04T08:00:00;5.23;;;4.07;;
9597;SDS011;4837;50.890;4.724;2023-12-04T08:02:27;5.90;;;4.43;;
9597;SDS011;4837;50.890;4.724;2023-12-04T08:04:53;5.50;;;4.30;;
9597;SDS011;4837;50.890;4.724;2023-12-04T08:07:19;6.73;;;4.23;;
9597;SDS011;4837;50.890;4.724;2023-12-04T08:09:45;6.87;;;4.70;;
9597;SDS011;4837;50.890;4.724;2023-12-04T08:12:11;5.13;;;4.30;;
9597;SDS011;4837;50.890;4.724;2023-12-04T08:14:37;8.47;;;4.43;;
9597;SDS011;4837;50.890;4.724;2023-12-04T08:17:03;5.70;;;4.47;;
9597;SDS011;4837;50.890;4.724;2023-12-04T08:19:30;7.53;;;4.30;;
9597;SDS011;4837;50.890;4.724;2023-12-04T08:21:57;8.47;;;4.57;;
9597;SDS011;4837;50.890;4.724;2023-12-04T08:24:23;7.23;;;4.77;;
9597;SDS011;4837;50.890;4.724;2023-12-04T08:26:49;7.37;;;4.37;;
9597;SDS011;4837;50.890;4.724;2023-12-04T08:29:16;7.83;;;4.40;;
9597;SDS011;4837;50.890;4.724;2023-12-04T08:31:42;9.00;;;4.50;;
9597;SDS011;4837;50.890;4.724;2023-12-04T08:34:09;6.47;;;4.83;;
9597;SDS011;4837;50.890;4.724;2023-12-04T08:36:35;6.50;;;4.60;;
9597;SDS011;4837;50.890;4.724;2023-12-04T08:39:01;7.17;;;4.20;;
9597;SDS011;4837;50.890;4.724;2023-12-04T08:41:29;7.33;;;4.60;;
9597;SDS011;4837;50.890;4.724;2023-12-04T08:43:55;5.97;;;4.47;;
9597;SDS011;4837;50.890;4.724;2023-12-04T08:46:21;7.13;;;5.00;;
9597;SDS011;4837;50.890;4.724;2023-12-04T08:48:48;6.60;;;4.00;;
9597;SDS011;4837;50.890;4.724;2023-12-04T08:51:17;6.03;;;4.33;;
9597;SDS011;4837;50.890;4.724;2023-12-04T08:53:43;7.53;;;4.77;;
9597;SDS011;4837;50.890;4.724;2023-12-04T08:56:10;9.73;;;4.20;;
9597;SDS011;4837;50.890;4.724;2023-12-04T08:58:36;7.90;;;4.77;;
9597;SDS011;4837;50.890;4.724;2023-12-04T09:01:02;5.70;;;3.90;;
9597;SDS011;4837;50.890;4.724;2023-12-04T09:03:29;7.37;;;3.97;;
9597;SDS011;4837;50.890;4.724;2023-12-04T09:05:56;4.73;;;3.43;;
9597;SDS011;4837;50.890;4.724;2023-12-04T09:08:23;4.90;;;3.70;;
9597;SDS011;4837;50.890;4.724;2023-12-04T09:10:51;5.23;;;3.90;;
9597;SDS011;4837;50.890;4.724;2023-12-04T09:13:17;5.73;;;3.90;;
9597;SDS011;4837;50.890;4.724;2023-12-04T09:15:43;7.70;;;4.10;;
9597;SDS011;4837;50.890;4.724;2023-12-04T09:18:09;6.13;;;4.13;;
9597;SDS011;4837;50.890;4.724;2023-12-04T09:20:36;8.30;;;3.90;;
9597;SDS011;4837;50.890;4.724;2023-12-04T09:23:02;6.00;;;4.90;;
9597;SDS011;4837;50.890;4.724;2023-12-04T09:25:28;5.93;;;4.30;;
9597;SDS011;4837;50.890;4.724;2023-12-04T09:27:54;7.03;;;4.27;;
9597;SDS011;4837;50.890;4.724;2023-12-04T09:30:20;7.10;;;4.57;;
9597;SDS011;4837;50.890;4.724;2023-12-04T09:32:46;8.67;;;4.67;;
9597;SDS011;4837;50.890;4.724;2023-12-04T09:35:12;8.83;;;6.00;;
9597;SDS011;4837;50.890;4.724;2023-12-04T09:37:40;6.00;;;4.60;;
9597;SDS011;4837;50.890;4.724;2023-12-04T09:40:06;7.10;;;4.93;;
9597;SDS011;4837;50.890;4.724;2023-12-04T09:42:33;7.67;;;5.00;;
9597;SDS011;4837;50.890;4.724;2023-12-04T09:44:59;7.03;;;4.83;;
9597;SDS011;4837;50.890;4.724;2023-12-04T09:47:26;8.37;;;5.20;;
9597;SDS011;4837;50.890;4.724;2023-12-04T09:49:53;8.80;;;4.83;;
9597;SDS011;4837;50.890;4.724;2023-12-04T09:52:20;8.40;;;5.07;;
9597;SDS011;4837;50.890;4.724;2023-12-04T09:54:46;6.33;;;4.87;;
9597;SDS011;4837;50.890;4.724;2023-12-04T09:57:13;9.83;;;5.63;;
9597;SDS011;4837;50.890;4.724;2023-12-04T09:59:39;7.03;;;5.03;;
9597;SDS011;4837;50.890;4.724;2023-12-04T10:02:06;7.10;;;4.80;;
9597;SDS011;4837;50.890;4.724;2023-12-04T10:04:32;6.63;;;5.30;;
9597;SDS011;4837;50.890;4.724;2023-12-04T10:06:59;8.00;;;5.03;;
9597;SDS011;4837;50.890;4.724;2023-12-04T10:09:25;8.40;;;5.60;;
9597;SDS011;4837;50.890;4.724;2023-12-04T10:11:51;7.20;;;5.13;;
9597;SDS011;4837;50.890;4.724;2023-12-04T10:14:18;7.17;;;5.23;;
9597;SDS011;4837;50.890;4.724;2023-12-04T10:16:45;6.40;;;4.73;;
9597;SDS011;4837;50.890;4.724;2023-12-04T10:19:21;8.23;;;5.33;;
9597;SDS011;4837;50.890;4.724;2023-12-04T10:21:49;8.70;;;5.50;;
9597;SDS011;4837;50.890;4.724;2023-12-04T10:27:01;9.67;;;6.23;;
9597;SDS011;4837;50.890;4.724;2023-12-04T10:29:30;10.03;;;6.10;;
9597;SDS011;4837;50.890;4.724;2023-12-04T10:32:07;8.63;;;6.50;;
9597;SDS011;4837;50.890;4.724;2023-12-04T10:34:33;9.60;;;5.90;;
9597;SDS011;4837;50.890;4.724;2023-12-04T10:36:59;8.90;;;5.57;;
9597;SDS011;4837;50.890;4.724;2023-12-04T10:39:25;8.07;;;5.57;;
9597;SDS011;4837;50.890;4.724;2023-12-04T10:41:59;9.37;;;6.20;;
9597;SDS011;4837;50.890;4.724;2023-12-04T10:44:27;10.53;;;6.40;;
9597;SDS011;4837;50.890;4.724;2023-12-04T10:46:54;11.23;;;6.43;;
9597;SDS011;4837;50.890;4.724;2023-12-04T10:49:27;8.87;;;6.07;;
9597;SDS011;4837;50.890;4.724;2023-12-04T10:51:57;10.03;;;6.00;;
9597;SDS011;4837;50.890;4.724;2023-12-04T10:54:26;9.23;;;6.73;;
9597;SDS011;4837;50.890;4.724;2023-12-04T10:56:53;10.30;;;7.10;;
9597;SDS011;4837;50.890;4.724;2023-12-04T10:59:26;11.07;;;6.90;;
9597;SDS011;4837;50.890;4.724;2023-12-04T11:01:53;10.67;;;7.27;;
9597;SDS011;4837;50.890;4.724;2023-12-04T11:04:21;9.40;;;6.87;;
9597;SDS011;4837;50.890;4.724;2023-12-04T11:06:51;12.87;;;7.57;;
9597;SDS011;4837;50.890;4.724;2023-12-04T11:09:17;9.83;;;7.07;;
9597;SDS011;4837;50.890;4.724;2023-12-04T11:11:46;11.30;;;7.30;;
9597;SDS011;4837;50.890;4.724;2023-12-04T11:14:14;9.70;;;7.27;;
9597;SDS011;4837;50.890;4.724;2023-12-04T11:21:42;10.23;;;7.00;;
9597;SDS011;4837;50.890;4.724;2023-12-04T11:24:09;11.23;;;7.43;;
9597;SDS011;4837;50.890;4.724;2023-12-04T11:26:35;10.83;;;7.50;;
9597;SDS011;4837;50.890;4.724;2023-12-04T11:29:01;12.83;;;7.83;;
9597;SDS011;4837;50.890;4.724;2023-12-04T11:31:27;12.53;;;7.80;;
9597;SDS011;4837;50.890;4.724;2023-12-04T11:33:54;10.47;;;7.10;;
9597;SDS011;4837;50.890;4.724;2023-12-04T11:36:27;11.30;;;7.50;;
9597;SDS011;4837;50.890;4.724;2023-12-04T11:38:53;9.97;;;7.67;;
9597;SDS011;4837;50.890;4.724;2023-12-04T11:41:24;11.53;;;7.17;;
9597;SDS011;4837;50.890;4.724;2023-12-04T11:43:51;12.00;;;7.93;;
9597;SDS011;4837;50.890;4.724;2023-12-04T11:46:21;10.10;;;7.30;;
9597;SDS011;4837;50.890;4.724;2023-12-04T11:48:49;13.47;;;7.67;;
9597;SDS011;4837;50.890;4.724;2023-12-04T11:51:44;19.57;;;7.73;;
9597;SDS011;4837;50.890;4.724;2023-12-04T11:54:01;12.00;;;7.67;;
9597;SDS011;4837;50.890;4.724;2023-12-04T11:56:30;13.00;;;7.50;;
9597;SDS011;4837;50.890;4.724;2023-12-04T11:59:03;10.07;;;7.57;;
9597;SDS011;4837;50.890;4.724;2023-12-04T12:01:33;9.63;;;7.23;;
9597;SDS011;4837;50.890;4.724;2023-12-04T12:03:59;11.30;;;7.53;;
9597;SDS011;4837;50.890;4.724;2023-12-04T12:06:26;11.17;;;7.30;;
9597;SDS011;4837;50.890;4.724;2023-12-04T12:08:52;12.93;;;7.90;;
9597;SDS011;4837;50.890;4.724;2023-12-04T12:11:19;11.47;;;7.40;;
9597;SDS011;4837;50.890;4.724;2023-12-04T12:13:45;12.47;;;7.60;;
9597;SDS011;4837;50.890;4.724;2023-12-04T12:16:12;10.67;;;7.23;;
9597;SDS011;4837;50.890;4.724;2023-12-04T12:18:40;11.00;;;7.57;;
9597;SDS011;4837;50.890;4.724;2023-12-04T12:21:06;10.27;;;6.90;;
9597;SDS011;4837;50.890;4.724;2023-12-04T12:23:33;9.13;;;6.90;;
9597;SDS011;4837;50.890;4.724;2023-12-04T12:25:59;9.53;;;7.10;;
9597;SDS011;4837;50.890;4.724;2023-12-04T12:28:25;8.63;;;6.57;;
9597;SDS011;4837;50.890;4.724;2023-12-04T12:30:51;9.27;;;6.70;;
9597;SDS011;4837;50.890;4.724;2023-12-04T12:33:20;10.17;;;6.93;;
9597;SDS011;4837;50.890;4.724;2023-12-04T12:35:48;9.20;;;7.03;;
9597;SDS011;4837;50.890;4.724;2023-12-04T12:38:14;12.33;;;6.90;;
9597;SDS011;4837;50.890;4.724;2023-12-04T12:40:41;9.60;;;6.63;;
9597;SDS011;4837;50.890;4.724;2023-12-04T12:43:07;9.30;;;7.80;;
9597;SDS011;4837;50.890;4.724;2023-12-04T12:45:40;10.00;;;7.10;;
9597;SDS011;4837;50.890;4.724;2023-12-04T12:48:12;10.40;;;6.77;;
9597;SDS011;4837;50.890;4.724;2023-12-04T12:50:39;10.67;;;6.30;;
9597;SDS011;4837;50.890;4.724;2023-12-04T12:53:05;15.60;;;7.17;;
9597;SDS011;4837;50.890;4.724;2023-12-04T12:55:31;7.67;;;5.93;;
9597;SDS011;4837;50.890;4.724;2023-12-04T12:57:57;9.30;;;6.77;;
9597;SDS011;4837;50.890;4.724;2023-12-04T13:00:23;8.67;;;6.17;;
9597;SDS011;4837;50.890;4.724;2023-12-04T13:02:52;12.10;;;6.83;;
9597;SDS011;4837;50.890;4.724;2023-12-04T13:05:18;8.63;;;5.93;;
9597;SDS011;4837;50.890;4.724;2023-12-04T13:07:45;13.13;;;7.07;;
9597;SDS011;4837;50.890;4.724;2023-12-04T13:10:11;10.67;;;6.37;;
9597;SDS011;4837;50.890;4.724;2023-12-04T13:12:37;8.67;;;6.17;;
9597;SDS011;4837;50.890;4.724;2023-12-04T13:15:03;8.57;;;6.03;;
9597;SDS011;4837;50.890;4.724;2023-12-04T13:17:30;9.73;;;5.93;;
9597;SDS011;4837;50.890;4.724;2023-12-04T13:19:57;10.37;;;6.20;;
9597;SDS011;4837;50.890;4.724;2023-12-04T13:22:23;10.60;;;6.10;;
9597;SDS011;4837;50.890;4.724;2023-12-04T13:24:49;8.87;;;6.40;;
9597;SDS011;4837;50.890;4.724;2023-12-04T13:27:15;8.03;;;5.80;;
9597;SDS011;4837;50.890;4.724;2023-12-04T13:29:41;8.10;;;6.00;;
9597;SDS011;4837;50.890;4.724;2023-12-04T13:32:07;7.67;;;5.70;;
9597;SDS011;4837;50.890;4.724;2023-12-04T13:34:34;10.27;;;5.73;;
9597;SDS011;4837;50.890;4.724;2023-12-04T13:37:00;8.90;;;5.93;;
9597;SDS011;4837;50.890;4.724;2023-12-04T13:39:26;9.23;;;6.17;;
9597;SDS011;4837;50.890;4.724;2023-12-04T13:42:01;7.50;;;5.93;;
9597;SDS011;4837;50.890;4.724;2023-12-04T13:44:46;8.43;;;5.60;;
9597;SDS011;4837;50.890;4.724;2023-12-04T13:47:12;8.53;;;5.50;;
9597;SDS011;4837;50.890;4.724;2023-12-04T13:49:39;7.80;;;5.90;;
9597;SDS011;4837;50.890;4.724;2023-12-04T13:52:05;6.93;;;5.60;;
9597;SDS011;4837;50.890;4.724;2023-12-04T13:54:33;7.80;;;5.87;;
9597;SDS011;4837;50.890;4.724;2023-12-04T13:57:12;7.40;;;5.60;;
9597;SDS011;4837;50.890;4.724;2023-12-04T13:59:53;7.27;;;5.67;;
9597;SDS011;4837;50.890;4.724;2023-12-04T14:02:22;6.40;;;5.43;;
9597;SDS011;4837;50.890;4.724;2023-12-04T14:04:48;6.57;;;5.10;;
9597;SDS011;4837;50.890;4.724;2023-12-04T14:07:15;7.43;;;5.63;;
9597;SDS011;4837;50.890;4.724;2023-12-04T14:09:41;8.23;;;5.73;;
9597;SDS011;4837;50.890;4.724;2023-12-04T14:12:07;7.03;;;5.63;;
9597;SDS011;4837;50.890;4.724;2023-12-04T14:14:33;6.07;;;5.20;;
9597;SDS011;4837;50.890;4.724;2023-12-04T14:17:00;7.17;;;5.50;;
9597;SDS011;4837;50.890;4.724;2023-12-04T14:19:28;8.10;;;5.70;;
9597;SDS011;4837;50.890;4.724;2023-12-04T14:21:55;9.70;;;6.43;;
9597;SDS011;4837;50.890;4.724;2023-12-04T14:24:21;8.20;;;6.53;;
9597;SDS011;4837;50.890;4.724;2023-12-04T14:26:51;7.63;;;6.47;;
9597;SDS011;4837;50.890;4.724;2023-12-04T14:29:18;7.67;;;6.30;;
9597;SDS011;4837;50.890;4.724;2023-12-04T14:31:45;9.13;;;6.40;;
9597;SDS011;4837;50.890;4.724;2023-12-04T14:34:11;7.83;;;6.30;;
9597;SDS011;4837;50.890;4.724;2023-12-04T14:36:37;8.60;;;6.47;;
9597;SDS011;4837;50.890;4.724;2023-12-04T14:39:05;9.97;;;7.03;;
9597;SDS011;4837;50.890;4.724;2023-12-04T14:41:31;8.73;;;6.10;;
9597;SDS011;4837;50.890;4.724;2023-12-04T14:43:57;7.53;;;5.70;;
9597;SDS011;4837;50.890;4.724;2023-12-04T14:46:25;7.43;;;6.50;;
9597;SDS011;4837;50.890;4.724;2023-12-04T14:48:51;7.17;;;6.03;;
9597;SDS011;4837;50.890;4.724;2023-12-04T14:51:17;8.27;;;6.30;;
9597;SDS011;4837;50.890;4.724;2023-12-04T14:53:43;8.73;;;6.73;;
9597;SDS011;4837;50.890;4.724;2023-12-04T14:56:16;7.80;;;6.33;;
9597;SDS011;4837;50.890;4.724;2023-12-04T14:59:01;8.63;;;6.57;;
9597;SDS011;4837;50.890;4.724;2023-12-04T15:01:50;9.93;;;6.37;;
9597;SDS011;4837;50.890;4.724;2023-12-04T15:04:22;9.03;;;6.63;;
9597;SDS011;4837;50.890;4.724;2023-12-04T15:07:24;8.33;;;6.13;;
9597;SDS011;4837;50.890;4.724;2023-12-04T15:10:19;7.20;;;6.20;;
9597;SDS011;4837;50.890;4.724;2023-12-04T15:13:04;7.77;;;6.30;;
9597;SDS011;4837;50.890;4.724;2023-12-04T15:15:39;8.03;;;6.47;;
9597;SDS011;4837;50.890;4.724;2023-12-04T15:18:05;8.23;;;5.93;;
9597;SDS011;4837;50.890;4.724;2023-12-04T15:20:50;8.67;;;5.63;;